Wednesday, November 22, 2017, 8:01 AM EST
Back to Local

KLCI, Laconia, Laconia Municipal Airport

Location: Laconia, NH, United States Lat: 43.567
Local Time: 8:01 AM EST (13:01 GMT) Lon: -71.417
Time Zone: US/Eastern Elev: 544 ft

Show me the last for .
Show Coded

Time T Td Feel RH Dir Speed Gust Alt SLP Vis Weather Sky Remarks
2017-11-22 06:56 30 30 26 100 300° 3 - 29.94 30.00 6 BR CLR 6-hr Min Temp (7am): 30.0°F
6-hr Max Temp (7am): 39.0°F
2017-11-22 05:56 31 30 - 96 - Calm - 29.96 30.01 10 CLR None
2017-11-22 04:56 31 30 - 96 - Calm - 29.97 30.03 10 CLR None
2017-11-22 02:56 32 29 29 88 300° 3 - 29.97 30.03 10 CLR None
2017-11-22 01:56 35 32 31 88 260° 5 - 29.96 30.02 10 CLR None
2017-11-22 00:56 39 32 - 75 - Calm - 29.96 30.02 10 CLR 6-hr Min Temp (1am): 39.0°F
6-hr Max Temp (1am): 48.0°F
2017-11-21 23:56 42 32 - 67 - Calm - 29.97 30.03 10 CLR None
2017-11-21 22:56 44 33 40 65 210° 8 - 29.96 30.02 10 CLR 24-hr Min Temp (11pm): 24.1°F
24-hr Max Temp (11pm): 55.0°F
2017-11-21 21:56 46 32 41 57 200° 10 - 29.95 30.00 10 CLR None
2017-11-21 20:56 47 31 41 53 190° 14 - 29.95 30.00 10 CLR None
2017-11-21 19:56 47 29 42 49 200° 12 - 29.95 30.01 10 CLR None
2017-11-21 18:56 46 28 42 49 240° 7 - 29.95 30.01 10 CLR 6-hr Min Temp (7pm): 46.0°F
6-hr Max Temp (7pm): 55.0°F
2017-11-21 17:56 49 27 48 42 200° 3 - 29.93 29.98 10 CLR None
2017-11-21 16:56 50 25 46 37 230° 10 - 29.92 29.98 10 CLR None
2017-11-21 15:56 53 26 - 34 220° 7 - 29.91 29.97 10 CLR None
2017-11-21 14:56 55 25 - 31 220° 18 23 29.90 29.96 10 CLR None
2017-11-21 13:56 53 26 - 34 210° 10 - 29.90 29.96 10 CLR None
2017-11-21 12:56 50 26 46 39 210° 10 - 29.93 29.98 10 CLR 6-hr Min Temp (1pm): 24.1°F
6-hr Max Temp (1pm): 50.0°F
2017-11-21 11:56 46 26 44 45 Variable 5 - 29.97 30.03 10 CLR None
2017-11-21 10:56 43 26 38 50 240° 8 - 30.00 30.05 10 CLR None
2017-11-21 09:56 38 27 33 64 250° 7 - 30.04 30.09 10 CLR None
2017-11-21 08:56 38 34 36 85 230° 3 - 30.05 30.11 10 CLR None

Support USWX by starting your Amazon purchase here.